Terminal Aerodrome Forecast
Issued by NWS Amarillo, TX

Home | Current Version | Previous Version | Text Only | Print | Product List | Glossary On
Versions: 1 2 3 4 5 6 7 8 9 10 11 12 13 14 15 16 17 18 19 20 21 22 23 24
000
FTUS44 KAMA 191100
TAFGUY
TAF
KGUY 191135Z 1912/2012 32015G25KT P6SM SCT020 BKN035
     FM191400 35028G40KT P6SM -SHRA BKN020
     FM192000 36024G34KT P6SM BKN050
     FM200200 35007KT P6SM BKN100=

USA.gov is the U.S. government's official web portal to all federal, state and local government web resources and services.